sensor_id;sensor_type;location;lat;lon;timestamp;P1;durP1;ratioP1;P2;durP2;ratioP2
64367;SDS011;50692;53.314;-6.300;2023-01-19T00:00:53;4.37;;;2.40;;
64367;SDS011;50692;53.314;-6.300;2023-01-19T00:03:39;4.20;;;2.57;;
64367;SDS011;50692;53.314;-6.300;2023-01-19T00:06:24;4.93;;;2.63;;
64367;SDS011;50692;53.314;-6.300;2023-01-19T00:09:12;4.37;;;2.83;;
64367;SDS011;50692;53.314;-6.300;2023-01-19T00:11:58;5.43;;;3.00;;
64367;SDS011;50692;53.314;-6.300;2023-01-19T00:14:44;3.30;;;2.60;;
64367;SDS011;50692;53.314;-6.300;2023-01-19T00:17:31;4.00;;;2.90;;
64367;SDS011;50692;53.314;-6.300;2023-01-19T00:20:17;3.47;;;3.00;;
64367;SDS011;50692;53.314;-6.300;2023-01-19T00:23:03;4.43;;;2.87;;
64367;SDS011;50692;53.314;-6.300;2023-01-19T00:25:49;4.63;;;2.80;;
64367;SDS011;50692;53.314;-6.300;2023-01-19T00:28:35;4.93;;;2.50;;
64367;SDS011;50692;53.314;-6.300;2023-01-19T00:31:21;4.20;;;2.23;;
64367;SDS011;50692;53.314;-6.300;2023-01-19T00:34:07;3.13;;;2.10;;
64367;SDS011;50692;53.314;-6.300;2023-01-19T00:36:53;2.90;;;2.00;;
64367;SDS011;50692;53.314;-6.300;2023-01-19T00:39:39;4.17;;;2.63;;
64367;SDS011;50692;53.314;-6.300;2023-01-19T00:42:24;5.53;;;3.23;;
64367;SDS011;50692;53.314;-6.300;2023-01-19T00:45:25;4.57;;;2.93;;
64367;SDS011;50692;53.314;-6.300;2023-01-19T00:48:11;5.17;;;2.77;;
64367;SDS011;50692;53.314;-6.300;2023-01-19T00:50:57;3.83;;;2.53;;
64367;SDS011;50692;53.314;-6.300;2023-01-19T00:53:44;4.43;;;2.23;;
64367;SDS011;50692;53.314;-6.300;2023-01-19T00:56:30;4.67;;;2.53;;
64367;SDS011;50692;53.314;-6.300;2023-01-19T00:59:16;5.37;;;2.80;;
64367;SDS011;50692;53.314;-6.300;2023-01-19T01:02:02;3.33;;;2.47;;
64367;SDS011;50692;53.314;-6.300;2023-01-19T01:04:48;2.97;;;1.90;;
64367;SDS011;50692;53.314;-6.300;2023-01-19T01:07:39;4.23;;;2.60;;
64367;SDS011;50692;53.314;-6.300;2023-01-19T01:10:27;6.20;;;2.30;;
64367;SDS011;50692;53.314;-6.300;2023-01-19T01:13:13;3.73;;;2.37;;
64367;SDS011;50692;53.314;-6.300;2023-01-19T01:15:59;3.57;;;1.70;;
64367;SDS011;50692;53.314;-6.300;2023-01-19T01:18:45;4.47;;;2.00;;
64367;SDS011;50692;53.314;-6.300;2023-01-19T01:21:31;4.73;;;2.20;;
64367;SDS011;50692;53.314;-6.300;2023-01-19T01:24:18;2.17;;;1.83;;
64367;SDS011;50692;53.314;-6.300;2023-01-19T01:27:05;2.23;;;1.60;;
64367;SDS011;50692;53.314;-6.300;2023-01-19T01:29:51;3.03;;;1.30;;
64367;SDS011;50692;53.314;-6.300;2023-01-19T01:32:37;3.60;;;1.40;;
64367;SDS011;50692;53.314;-6.300;2023-01-19T01:35:23;2.83;;;1.50;;
64367;SDS011;50692;53.314;-6.300;2023-01-19T01:38:10;5.57;;;1.90;;
64367;SDS011;50692;53.314;-6.300;2023-01-19T01:40:56;3.07;;;1.90;;
64367;SDS011;50692;53.314;-6.300;2023-01-19T01:43:49;2.60;;;1.50;;
64367;SDS011;50692;53.314;-6.300;2023-01-19T01:46:42;3.93;;;1.93;;
64367;SDS011;50692;53.314;-6.300;2023-01-19T01:49:28;2.70;;;1.70;;
64367;SDS011;50692;53.314;-6.300;2023-01-19T01:52:14;3.80;;;1.80;;
64367;SDS011;50692;53.314;-6.300;2023-01-19T01:55:01;3.40;;;1.60;;
64367;SDS011;50692;53.314;-6.300;2023-01-19T01:57:51;2.03;;;1.50;;
64367;SDS011;50692;53.314;-6.300;2023-01-19T02:00:41;4.90;;;1.83;;
64367;SDS011;50692;53.314;-6.300;2023-01-19T02:03:46;3.43;;;1.70;;
64367;SDS011;50692;53.314;-6.300;2023-01-19T02:06:32;4.37;;;1.70;;
64367;SDS011;50692;53.314;-6.300;2023-01-19T02:09:18;5.50;;;1.50;;
64367;SDS011;50692;53.314;-6.300;2023-01-19T02:12:25;3.57;;;1.23;;
64367;SDS011;50692;53.314;-6.300;2023-01-19T02:15:30;5.03;;;1.83;;
64367;SDS011;50692;53.314;-6.300;2023-01-19T02:18:16;4.23;;;1.73;;
64367;SDS011;50692;53.314;-6.300;2023-01-19T02:21:09;2.47;;;1.50;;
64367;SDS011;50692;53.314;-6.300;2023-01-19T02:23:56;4.40;;;1.63;;
64367;SDS011;50692;53.314;-6.300;2023-01-19T02:26:46;2.83;;;1.63;;
64367;SDS011;50692;53.314;-6.300;2023-01-19T02:29:33;3.27;;;1.70;;
64367;SDS011;50692;53.314;-6.300;2023-01-19T02:32:19;2.00;;;1.20;;
64367;SDS011;50692;53.314;-6.300;2023-01-19T02:35:05;3.77;;;1.47;;
64367;SDS011;50692;53.314;-6.300;2023-01-19T02:37:51;2.37;;;1.50;;
64367;SDS011;50692;53.314;-6.300;2023-01-19T02:40:38;3.67;;;1.30;;
64367;SDS011;50692;53.314;-6.300;2023-01-19T02:43:27;1.77;;;1.20;;
64367;SDS011;50692;53.314;-6.300;2023-01-19T02:46:14;3.27;;;1.33;;
64367;SDS011;50692;53.314;-6.300;2023-01-19T02:49:00;3.27;;;1.40;;
64367;SDS011;50692;53.314;-6.300;2023-01-19T02:51:46;3.33;;;1.40;;
64367;SDS011;50692;53.314;-6.300;2023-01-19T03:07:10;2.60;;;1.50;;
64367;SDS011;50692;53.314;-6.300;2023-01-19T03:21:53;2.13;;;1.50;;
64367;SDS011;50692;53.314;-6.300;2023-01-19T03:24:43;1.63;;;1.50;;
64367;SDS011;50692;53.314;-6.300;2023-01-19T03:27:32;4.80;;;1.88;;
64367;SDS011;50692;53.314;-6.300;2023-01-19T03:30:26;3.63;;;2.00;;
64367;SDS011;50692;53.314;-6.300;2023-01-19T03:33:19;3.23;;;1.80;;
64367;SDS011;50692;53.314;-6.300;2023-01-19T03:36:13;3.17;;;1.60;;
64367;SDS011;50692;53.314;-6.300;2023-01-19T03:39:04;2.90;;;1.13;;
64367;SDS011;50692;53.314;-6.300;2023-01-19T03:41:54;2.42;;;1.25;;
64367;SDS011;50692;53.314;-6.300;2023-01-19T03:44:45;1.80;;;0.87;;
64367;SDS011;50692;53.314;-6.300;2023-01-19T03:47:34;2.53;;;1.25;;
64367;SDS011;50692;53.314;-6.300;2023-01-19T03:50:25;2.50;;;1.10;;
64367;SDS011;50692;53.314;-6.300;2023-01-19T03:53:14;1.60;;;0.93;;
64367;SDS011;50692;53.314;-6.300;2023-01-19T03:56:00;3.97;;;1.07;;
64367;SDS011;50692;53.314;-6.300;2023-01-19T03:58:46;5.13;;;1.37;;
64367;SDS011;50692;53.314;-6.300;2023-01-19T04:01:32;2.63;;;1.07;;
64367;SDS011;50692;53.314;-6.300;2023-01-19T04:04:18;2.93;;;1.00;;
64367;SDS011;50692;53.314;-6.300;2023-01-19T04:07:04;7.50;;;1.20;;
64367;SDS011;50692;53.314;-6.300;2023-01-19T04:09:50;2.93;;;1.30;;
64367;SDS011;50692;53.314;-6.300;2023-01-19T04:12:36;3.13;;;1.10;;
64367;SDS011;50692;53.314;-6.300;2023-01-19T04:15:22;1.27;;;1.00;;
64367;SDS011;50692;53.314;-6.300;2023-01-19T04:18:08;1.27;;;0.80;;
64367;SDS011;50692;53.314;-6.300;2023-01-19T04:20:53;3.47;;;1.17;;
64367;SDS011;50692;53.314;-6.300;2023-01-19T04:23:39;1.20;;;0.90;;
64367;SDS011;50692;53.314;-6.300;2023-01-19T04:26:25;2.00;;;1.00;;
64367;SDS011;50692;53.314;-6.300;2023-01-19T04:29:11;1.73;;;0.93;;
64367;SDS011;50692;53.314;-6.300;2023-01-19T04:31:58;1.77;;;0.93;;
64367;SDS011;50692;53.314;-6.300;2023-01-19T04:34:44;2.83;;;0.97;;
64367;SDS011;50692;53.314;-6.300;2023-01-19T04:37:29;3.03;;;0.90;;
64367;SDS011;50692;53.314;-6.300;2023-01-19T04:40:15;2.63;;;1.30;;
64367;SDS011;50692;53.314;-6.300;2023-01-19T04:43:01;2.63;;;0.93;;
64367;SDS011;50692;53.314;-6.300;2023-01-19T04:45:47;2.47;;;1.20;;
64367;SDS011;50692;53.314;-6.300;2023-01-19T04:48:33;2.40;;;1.20;;
64367;SDS011;50692;53.314;-6.300;2023-01-19T04:51:19;2.67;;;1.30;;
64367;SDS011;50692;53.314;-6.300;2023-01-19T04:54:05;1.53;;;1.20;;
64367;SDS011;50692;53.314;-6.300;2023-01-19T04:56:53;2.17;;;1.27;;
64367;SDS011;50692;53.314;-6.300;2023-01-19T04:59:39;1.93;;;0.97;;
64367;SDS011;50692;53.314;-6.300;2023-01-19T05:02:24;1.80;;;1.10;;
64367;SDS011;50692;53.314;-6.300;2023-01-19T05:05:11;4.50;;;1.40;;
64367;SDS011;50692;53.314;-6.300;2023-01-19T05:07:57;1.70;;;1.00;;
64367;SDS011;50692;53.314;-6.300;2023-01-19T05:10:43;2.20;;;1.13;;
64367;SDS011;50692;53.314;-6.300;2023-01-19T05:13:28;2.40;;;1.10;;
64367;SDS011;50692;53.314;-6.300;2023-01-19T05:16:14;1.90;;;1.20;;
64367;SDS011;50692;53.314;-6.300;2023-01-19T05:19:00;2.67;;;1.47;;
64367;SDS011;50692;53.314;-6.300;2023-01-19T05:21:46;3.60;;;1.00;;
64367;SDS011;50692;53.314;-6.300;2023-01-19T05:24:32;2.10;;;1.20;;
64367;SDS011;50692;53.314;-6.300;2023-01-19T05:27:18;4.10;;;1.00;;
64367;SDS011;50692;53.314;-6.300;2023-01-19T05:30:04;2.77;;;1.30;;
64367;SDS011;50692;53.314;-6.300;2023-01-19T05:32:50;3.03;;;1.10;;
64367;SDS011;50692;53.314;-6.300;2023-01-19T05:35:36;2.17;;;1.10;;
64367;SDS011;50692;53.314;-6.300;2023-01-19T05:38:22;3.77;;;1.03;;
64367;SDS011;50692;53.314;-6.300;2023-01-19T05:41:08;2.73;;;0.83;;
64367;SDS011;50692;53.314;-6.300;2023-01-19T05:43:54;2.53;;;1.00;;
64367;SDS011;50692;53.314;-6.300;2023-01-19T05:46:40;2.13;;;0.83;;
64367;SDS011;50692;53.314;-6.300;2023-01-19T05:49:26;1.93;;;0.90;;
64367;SDS011;50692;53.314;-6.300;2023-01-19T05:52:11;1.93;;;1.00;;
64367;SDS011;50692;53.314;-6.300;2023-01-19T05:54:57;1.90;;;1.03;;
64367;SDS011;50692;53.314;-6.300;2023-01-19T05:57:43;2.73;;;1.00;;
64367;SDS011;50692;53.314;-6.300;2023-01-19T06:00:29;3.50;;;1.27;;
64367;SDS011;50692;53.314;-6.300;2023-01-19T06:03:15;3.17;;;1.23;;
64367;SDS011;50692;53.314;-6.300;2023-01-19T06:06:01;1.93;;;1.00;;
64367;SDS011;50692;53.314;-6.300;2023-01-19T06:08:47;3.23;;;1.53;;
64367;SDS011;50692;53.314;-6.300;2023-01-19T06:11:33;2.20;;;1.10;;
64367;SDS011;50692;53.314;-6.300;2023-01-19T06:14:19;2.03;;;1.00;;
64367;SDS011;50692;53.314;-6.300;2023-01-19T06:17:05;1.63;;;1.10;;
64367;SDS011;50692;53.314;-6.300;2023-01-19T06:19:52;3.17;;;1.00;;
64367;SDS011;50692;53.314;-6.300;2023-01-19T06:22:37;2.43;;;1.20;;
64367;SDS011;50692;53.314;-6.300;2023-01-19T06:25:23;1.80;;;0.97;;
64367;SDS011;50692;53.314;-6.300;2023-01-19T06:28:10;2.73;;;1.40;;
64367;SDS011;50692;53.314;-6.300;2023-01-19T06:30:56;4.00;;;1.20;;
64367;SDS011;50692;53.314;-6.300;2023-01-19T06:33:42;4.90;;;1.40;;
64367;SDS011;50692;53.314;-6.300;2023-01-19T06:36:27;4.10;;;1.30;;
64367;SDS011;50692;53.314;-6.300;2023-01-19T06:39:14;2.03;;;1.10;;
64367;SDS011;50692;53.314;-6.300;2023-01-19T06:42:01;2.17;;;1.20;;
64367;SDS011;50692;53.314;-6.300;2023-01-19T06:44:47;1.60;;;0.97;;
64367;SDS011;50692;53.314;-6.300;2023-01-19T06:47:33;3.33;;;1.37;;
64367;SDS011;50692;53.314;-6.300;2023-01-19T06:50:19;2.97;;;1.43;;
64367;SDS011;50692;53.314;-6.300;2023-01-19T06:53:05;2.20;;;1.37;;
64367;SDS011;50692;53.314;-6.300;2023-01-19T06:55:51;4.10;;;1.10;;
64367;SDS011;50692;53.314;-6.300;2023-01-19T06:58:36;2.07;;;1.10;;
64367;SDS011;50692;53.314;-6.300;2023-01-19T07:01:22;5.27;;;1.40;;
64367;SDS011;50692;53.314;-6.300;2023-01-19T07:04:08;4.13;;;1.47;;
64367;SDS011;50692;53.314;-6.300;2023-01-19T07:06:58;3.05;;;1.23;;
64367;SDS011;50692;53.314;-6.300;2023-01-19T07:09:44;3.47;;;1.53;;
64367;SDS011;50692;53.314;-6.300;2023-01-19T07:12:29;2.23;;;1.30;;
64367;SDS011;50692;53.314;-6.300;2023-01-19T07:15:16;3.43;;;1.53;;
64367;SDS011;50692;53.314;-6.300;2023-01-19T07:18:04;3.57;;;1.17;;
64367;SDS011;50692;53.314;-6.300;2023-01-19T07:20:52;3.40;;;1.40;;
64367;SDS011;50692;53.314;-6.300;2023-01-19T07:23:38;3.13;;;1.30;;
64367;SDS011;50692;53.314;-6.300;2023-01-19T07:26:23;1.53;;;1.27;;
64367;SDS011;50692;53.314;-6.300;2023-01-19T07:29:10;5.20;;;1.30;;
64367;SDS011;50692;53.314;-6.300;2023-01-19T07:31:55;1.67;;;1.23;;
64367;SDS011;50692;53.314;-6.300;2023-01-19T07:34:42;1.80;;;1.60;;
64367;SDS011;50692;53.314;-6.300;2023-01-19T07:37:27;2.50;;;0.90;;
64367;SDS011;50692;53.314;-6.300;2023-01-19T07:40:13;3.40;;;1.20;;
64367;SDS011;50692;53.314;-6.300;2023-01-19T07:42:59;1.97;;;1.20;;
64367;SDS011;50692;53.314;-6.300;2023-01-19T07:45:46;2.07;;;1.17;;
64367;SDS011;50692;53.314;-6.300;2023-01-19T07:48:32;2.83;;;1.40;;
64367;SDS011;50692;53.314;-6.300;2023-01-19T07:51:18;3.87;;;1.63;;
64367;SDS011;50692;53.314;-6.300;2023-01-19T07:54:04;2.03;;;1.50;;
64367;SDS011;50692;53.314;-6.300;2023-01-19T07:56:53;4.10;;;1.70;;
64367;SDS011;50692;53.314;-6.300;2023-01-19T07:59:39;5.23;;;1.77;;
64367;SDS011;50692;53.314;-6.300;2023-01-19T08:02:25;3.90;;;1.87;;
64367;SDS011;50692;53.314;-6.300;2023-01-19T08:05:11;2.37;;;2.10;;
64367;SDS011;50692;53.314;-6.300;2023-01-19T08:07:57;4.13;;;1.67;;
64367;SDS011;50692;53.314;-6.300;2023-01-19T08:10:47;3.23;;;1.50;;
64367;SDS011;50692;53.314;-6.300;2023-01-19T08:13:34;3.03;;;1.27;;
64367;SDS011;50692;53.314;-6.300;2023-01-19T08:16:20;3.00;;;1.57;;
64367;SDS011;50692;53.314;-6.300;2023-01-19T08:19:05;5.13;;;1.50;;
64367;SDS011;50692;53.314;-6.300;2023-01-19T08:21:51;5.67;;;1.50;;
64367;SDS011;50692;53.314;-6.300;2023-01-19T08:24:37;4.13;;;1.53;;
64367;SDS011;50692;53.314;-6.300;2023-01-19T08:27:23;2.23;;;1.40;;
64367;SDS011;50692;53.314;-6.300;2023-01-19T08:30:09;6.17;;;1.67;;
64367;SDS011;50692;53.314;-6.300;2023-01-19T08:32:56;3.03;;;1.30;;
64367;SDS011;50692;53.314;-6.300;2023-01-19T08:36:02;3.57;;;1.63;;
64367;SDS011;50692;53.314;-6.300;2023-01-19T08:38:48;9.37;;;2.30;;
64367;SDS011;50692;53.314;-6.300;2023-01-19T08:41:34;9.27;;;2.83;;
64367;SDS011;50692;53.314;-6.300;2023-01-19T08:44:20;7.37;;;2.50;;
64367;SDS011;50692;53.314;-6.300;2023-01-19T08:47:06;5.43;;;2.17;;
64367;SDS011;50692;53.314;-6.300;2023-01-19T08:49:53;5.13;;;2.10;;
64367;SDS011;50692;53.314;-6.300;2023-01-19T08:52:39;3.27;;;1.93;;
64367;SDS011;50692;53.314;-6.300;2023-01-19T08:55:25;4.57;;;2.20;;
64367;SDS011;50692;53.314;-6.300;2023-01-19T08:58:11;5.90;;;2.53;;
64367;SDS011;50692;53.314;-6.300;2023-01-19T09:00:58;6.37;;;2.90;;
64367;SDS011;50692;53.314;-6.300;2023-01-19T09:03:44;7.03;;;3.20;;
64367;SDS011;50692;53.314;-6.300;2023-01-19T09:06:30;8.93;;;3.37;;
64367;SDS011;50692;53.314;-6.300;2023-01-19T09:09:17;8.00;;;3.47;;
64367;SDS011;50692;53.314;-6.300;2023-01-19T09:12:02;6.47;;;3.40;;
64367;SDS011;50692;53.314;-6.300;2023-01-19T09:14:48;8.00;;;2.70;;
64367;SDS011;50692;53.314;-6.300;2023-01-19T09:17:34;5.47;;;2.97;;
64367;SDS011;50692;53.314;-6.300;2023-01-19T09:20:20;7.13;;;2.50;;
64367;SDS011;50692;53.314;-6.300;2023-01-19T09:23:08;6.73;;;2.90;;
64367;SDS011;50692;53.314;-6.300;2023-01-19T09:28:45;2.90;;;1.63;;
64367;SDS011;50692;53.314;-6.300;2023-01-19T09:31:32;4.23;;;1.93;;
64367;SDS011;50692;53.314;-6.300;2023-01-19T09:34:18;7.00;;;3.93;;
64367;SDS011;50692;53.314;-6.300;2023-01-19T09:37:05;6.60;;;3.23;;
64367;SDS011;50692;53.314;-6.300;2023-01-19T09:39:51;5.67;;;3.17;;
64367;SDS011;50692;53.314;-6.300;2023-01-19T09:51:35;3.80;;;2.90;;
64367;SDS011;50692;53.314;-6.300;2023-01-19T09:54:34;8.40;;;3.40;;
64367;SDS011;50692;53.314;-6.300;2023-01-19T09:57:26;5.10;;;2.83;;
64367;SDS011;50692;53.314;-6.300;2023-01-19T10:00:17;4.60;;;2.77;;
64367;SDS011;50692;53.314;-6.300;2023-01-19T10:03:08;5.10;;;3.03;;
64367;SDS011;50692;53.314;-6.300;2023-01-19T10:05:57;4.07;;;3.00;;
64367;SDS011;50692;53.314;-6.300;2023-01-19T10:08:54;5.20;;;2.77;;
64367;SDS011;50692;53.314;-6.300;2023-01-19T10:15:23;3.07;;;2.00;;
64367;SDS011;50692;53.314;-6.300;2023-01-19T10:18:37;2.83;;;1.85;;
64367;SDS011;50692;53.314;-6.300;2023-01-19T10:21:40;3.70;;;2.10;;
64367;SDS011;50692;53.314;-6.300;2023-01-19T10:24:29;5.33;;;2.27;;
64367;SDS011;50692;53.314;-6.300;2023-01-19T10:27:28;5.33;;;2.63;;
64367;SDS011;50692;53.314;-6.300;2023-01-19T10:30:20;4.17;;;2.80;;
64367;SDS011;50692;53.314;-6.300;2023-01-19T10:33:10;6.70;;;3.10;;
64367;SDS011;50692;53.314;-6.300;2023-01-19T10:35:57;5.22;;;2.50;;
64367;SDS011;50692;53.314;-6.300;2023-01-19T10:38:43;4.47;;;2.57;;
64367;SDS011;50692;53.314;-6.300;2023-01-19T10:41:40;4.20;;;2.77;;
64367;SDS011;50692;53.314;-6.300;2023-01-19T10:44:28;4.53;;;2.80;;
64367;SDS011;50692;53.314;-6.300;2023-01-19T10:47:21;5.40;;;2.60;;
64367;SDS011;50692;53.314;-6.300;2023-01-19T10:53:18;7.65;;;3.38;;
64367;SDS011;50692;53.314;-6.300;2023-01-19T10:59:37;5.43;;;3.15;;
64367;SDS011;50692;53.314;-6.300;2023-01-19T11:02:31;6.20;;;2.97;;
64367;SDS011;50692;53.314;-6.300;2023-01-19T11:05:21;5.00;;;2.80;;
64367;SDS011;50692;53.314;-6.300;2023-01-19T11:08:28;4.13;;;2.20;;
64367;SDS011;50692;53.314;-6.300;2023-01-19T11:11:14;7.15;;;2.80;;
64367;SDS011;50692;53.314;-6.300;2023-01-19T11:14:02;5.80;;;3.30;;
64367;SDS011;50692;53.314;-6.300;2023-01-19T11:16:54;3.53;;;2.58;;
64367;SDS011;50692;53.314;-6.300;2023-01-19T11:19:42;5.68;;;2.80;;
64367;SDS011;50692;53.314;-6.300;2023-01-19T11:22:32;6.47;;;3.10;;
64367;SDS011;50692;53.314;-6.300;2023-01-19T11:25:23;3.92;;;2.50;;
64367;SDS011;50692;53.314;-6.300;2023-01-19T11:28:19;4.68;;;2.88;;
64367;SDS011;50692;53.314;-6.300;2023-01-19T11:31:29;3.80;;;1.85;;
64367;SDS011;50692;53.314;-6.300;2023-01-19T11:34:31;4.32;;;2.70;;
64367;SDS011;50692;53.314;-6.300;2023-01-19T11:40:04;5.15;;;2.70;;
64367;SDS011;50692;53.314;-6.300;2023-01-19T11:42:53;5.22;;;3.03;;
64367;SDS011;50692;53.314;-6.300;2023-01-19T11:45:39;3.92;;;2.75;;
64367;SDS011;50692;53.314;-6.300;2023-01-19T11:48:30;4.25;;;2.70;;
64367;SDS011;50692;53.314;-6.300;2023-01-19T11:51:21;4.82;;;2.72;;
64367;SDS011;50692;53.314;-6.300;2023-01-19T11:54:18;3.55;;;3.20;;
64367;SDS011;50692;53.314;-6.300;2023-01-19T11:57:11;5.07;;;2.80;;
64367;SDS011;50692;53.314;-6.300;2023-01-19T12:00:00;4.05;;;2.67;;
64367;SDS011;50692;53.314;-6.300;2023-01-19T12:02:49;4.88;;;2.92;;
64367;SDS011;50692;53.314;-6.300;2023-01-19T12:05:45;6.55;;;3.58;;
64367;SDS011;50692;53.314;-6.300;2023-01-19T12:08:39;4.70;;;2.53;;
64367;SDS011;50692;53.314;-6.300;2023-01-19T12:12:12;3.65;;;2.75;;
64367;SDS011;50692;53.314;-6.300;2023-01-19T12:14:51;4.05;;;2.90;;
64367;SDS011;50692;53.314;-6.300;2023-01-19T12:17:56;4.65;;;3.20;;
64367;SDS011;50692;53.314;-6.300;2023-01-19T12:23:39;4.13;;;2.88;;
64367;SDS011;50692;53.314;-6.300;2023-01-19T12:26:51;4.45;;;3.15;;
64367;SDS011;50692;53.314;-6.300;2023-01-19T12:29:40;3.38;;;2.70;;
64367;SDS011;50692;53.314;-6.300;2023-01-19T12:32:34;5.18;;;3.10;;
64367;SDS011;50692;53.314;-6.300;2023-01-19T12:38:41;4.30;;;2.70;;
64367;SDS011;50692;53.314;-6.300;2023-01-19T12:41:38;4.43;;;3.10;;
64367;SDS011;50692;53.314;-6.300;2023-01-19T12:44:26;4.50;;;2.75;;
64367;SDS011;50692;53.314;-6.300;2023-01-19T12:50:03;3.70;;;2.72;;
64367;SDS011;50692;53.314;-6.300;2023-01-19T12:52:52;4.07;;;2.58;;
64367;SDS011;50692;53.314;-6.300;2023-01-19T12:55:44;5.38;;;3.60;;
64367;SDS011;50692;53.314;-6.300;2023-01-19T12:58:47;3.75;;;2.40;;
64367;SDS011;50692;53.314;-6.300;2023-01-19T13:01:35;4.78;;;2.80;;
64367;SDS011;50692;53.314;-6.300;2023-01-19T13:04:31;5.45;;;3.05;;
64367;SDS011;50692;53.314;-6.300;2023-01-19T13:07:18;4.63;;;3.25;;
64367;SDS011;50692;53.314;-6.300;2023-01-19T13:13:33;3.88;;;2.80;;
64367;SDS011;50692;53.314;-6.300;2023-01-19T13:19:13;4.68;;;3.00;;
64367;SDS011;50692;53.314;-6.300;2023-01-19T13:25:35;3.80;;;2.78;;
64367;SDS011;50692;53.314;-6.300;2023-01-19T13:28:27;3.80;;;2.95;;
64367;SDS011;50692;53.314;-6.300;2023-01-19T13:31:16;5.47;;;3.08;;
64367;SDS011;50692;53.314;-6.300;2023-01-19T13:34:03;5.85;;;3.15;;
64367;SDS011;50692;53.314;-6.300;2023-01-19T13:36:56;6.22;;;3.47;;
64367;SDS011;50692;53.314;-6.300;2023-01-19T13:39:47;5.15;;;2.92;;
64367;SDS011;50692;53.314;-6.300;2023-01-19T13:42:36;5.78;;;3.20;;
64367;SDS011;50692;53.314;-6.300;2023-01-19T13:48:22;6.75;;;3.30;;
64367;SDS011;50692;53.314;-6.300;2023-01-19T13:51:16;3.85;;;2.80;;
64367;SDS011;50692;53.314;-6.300;2023-01-19T13:54:03;3.85;;;2.83;;
64367;SDS011;50692;53.314;-6.300;2023-01-19T13:56:50;5.45;;;3.05;;
64367;SDS011;50692;53.314;-6.300;2023-01-19T13:59:36;3.78;;;3.05;;
64367;SDS011;50692;53.314;-6.300;2023-01-19T14:02:21;6.28;;;3.00;;
64367;SDS011;50692;53.314;-6.300;2023-01-19T14:05:50;4.53;;;2.72;;
64367;SDS011;50692;53.314;-6.300;2023-01-19T14:08:18;4.55;;;2.85;;
64367;SDS011;50692;53.314;-6.300;2023-01-19T14:11:11;3.70;;;2.72;;
64367;SDS011;50692;53.314;-6.300;2023-01-19T14:13:58;3.85;;;2.70;;
64367;SDS011;50692;53.314;-6.300;2023-01-19T14:16:43;3.00;;;2.60;;
64367;SDS011;50692;53.314;-6.300;2023-01-19T14:19:44;4.75;;;3.50;;
64367;SDS011;50692;53.314;-6.300;2023-01-19T14:25:25;4.05;;;2.40;;
64367;SDS011;50692;53.314;-6.300;2023-01-19T14:34:23;3.78;;;2.45;;
64367;SDS011;50692;53.314;-6.300;2023-01-19T14:37:25;2.05;;;1.48;;
64367;SDS011;50692;53.314;-6.300;2023-01-19T14:40:19;2.80;;;2.50;;
64367;SDS011;50692;53.314;-6.300;2023-01-19T14:43:09;4.95;;;2.42;;
64367;SDS011;50692;53.314;-6.300;2023-01-19T14:45:57;3.60;;;2.22;;
64367;SDS011;50692;53.314;-6.300;2023-01-19T14:48:49;3.60;;;2.28;;
64367;SDS011;50692;53.314;-6.300;2023-01-19T14:51:38;4.05;;;2.60;;
64367;SDS011;50692;53.314;-6.300;2023-01-19T14:54:34;3.42;;;2.20;;
64367;SDS011;50692;53.314;-6.300;2023-01-19T14:57:24;2.63;;;2.00;;
64367;SDS011;50692;53.314;-6.300;2023-01-19T15:00:11;2.70;;;1.90;;
64367;SDS011;50692;53.314;-6.300;2023-01-19T15:03:01;4.95;;;3.78;;
64367;SDS011;50692;53.314;-6.300;2023-01-19T15:05:50;3.27;;;2.20;;
64367;SDS011;50692;53.314;-6.300;2023-01-19T15:08:37;3.45;;;1.70;;
64367;SDS011;50692;53.314;-6.300;2023-01-19T15:11:30;6.53;;;5.82;;
64367;SDS011;50692;53.314;-6.300;2023-01-19T15:14:18;3.10;;;2.35;;
64367;SDS011;50692;53.314;-6.300;2023-01-19T15:17:07;3.90;;;2.15;;
64367;SDS011;50692;53.314;-6.300;2023-01-19T15:20:01;2.70;;;1.60;;
64367;SDS011;50692;53.314;-6.300;2023-01-19T15:22:47;2.80;;;1.58;;
64367;SDS011;50692;53.314;-6.300;2023-01-19T15:25:33;2.85;;;1.60;;
64367;SDS011;50692;53.314;-6.300;2023-01-19T15:28:19;4.93;;;3.45;;
64367;SDS011;50692;53.314;-6.300;2023-01-19T15:31:05;4.80;;;3.72;;
64367;SDS011;50692;53.314;-6.300;2023-01-19T15:33:51;4.38;;;2.35;;
64367;SDS011;50692;53.314;-6.300;2023-01-19T15:36:37;4.00;;;2.85;;
64367;SDS011;50692;53.314;-6.300;2023-01-19T15:39:23;3.60;;;2.75;;
64367;SDS011;50692;53.314;-6.300;2023-01-19T15:42:13;7.30;;;6.50;;
64367;SDS011;50692;53.314;-6.300;2023-01-19T15:44:59;2.97;;;1.77;;
64367;SDS011;50692;53.314;-6.300;2023-01-19T15:47:45;4.97;;;2.72;;
64367;SDS011;50692;53.314;-6.300;2023-01-19T15:50:32;4.28;;;3.03;;
64367;SDS011;50692;53.314;-6.300;2023-01-19T15:53:20;2.83;;;2.10;;
64367;SDS011;50692;53.314;-6.300;2023-01-19T15:56:15;7.10;;;3.43;;
64367;SDS011;50692;53.314;-6.300;2023-01-19T15:59:11;6.25;;;5.10;;
64367;SDS011;50692;53.314;-6.300;2023-01-19T16:01:57;3.53;;;2.00;;
64367;SDS011;50692;53.314;-6.300;2023-01-19T16:04:46;3.23;;;2.10;;
64367;SDS011;50692;53.314;-6.300;2023-01-19T16:07:33;2.30;;;2.10;;
64367;SDS011;50692;53.314;-6.300;2023-01-19T16:10:19;5.67;;;2.70;;
64367;SDS011;50692;53.314;-6.300;2023-01-19T16:13:06;4.60;;;3.37;;
64367;SDS011;50692;53.314;-6.300;2023-01-19T16:15:52;6.13;;;2.87;;
64367;SDS011;50692;53.314;-6.300;2023-01-19T16:18:38;6.70;;;4.20;;
64367;SDS011;50692;53.314;-6.300;2023-01-19T16:21:24;4.47;;;3.13;;
64367;SDS011;50692;53.314;-6.300;2023-01-19T16:24:11;7.10;;;4.50;;
64367;SDS011;50692;53.314;-6.300;2023-01-19T16:26:57;6.83;;;4.40;;
64367;SDS011;50692;53.314;-6.300;2023-01-19T16:29:44;5.60;;;3.70;;
64367;SDS011;50692;53.314;-6.300;2023-01-19T16:32:32;6.27;;;3.70;;
64367;SDS011;50692;53.314;-6.300;2023-01-19T16:35:19;6.07;;;4.40;;
64367;SDS011;50692;53.314;-6.300;2023-01-19T16:38:05;8.13;;;5.20;;
64367;SDS011;50692;53.314;-6.300;2023-01-19T16:40:51;9.80;;;7.67;;
64367;SDS011;50692;53.314;-6.300;2023-01-19T16:43:36;7.27;;;5.20;;
64367;SDS011;50692;53.314;-6.300;2023-01-19T16:46:23;19.70;;;16.13;;
64367;SDS011;50692;53.314;-6.300;2023-01-19T16:49:11;10.33;;;7.40;;
64367;SDS011;50692;53.314;-6.300;2023-01-19T16:51:59;10.60;;;7.50;;
64367;SDS011;50692;53.314;-6.300;2023-01-19T16:54:45;6.00;;;4.20;;
64367;SDS011;50692;53.314;-6.300;2023-01-19T16:57:31;9.37;;;6.07;;
64367;SDS011;50692;53.314;-6.300;2023-01-19T17:00:16;7.93;;;5.10;;
64367;SDS011;50692;53.314;-6.300;2023-01-19T17:03:03;9.10;;;5.33;;
64367;SDS011;50692;53.314;-6.300;2023-01-19T17:05:49;8.20;;;5.33;;
64367;SDS011;50692;53.314;-6.300;2023-01-19T17:08:36;15.67;;;12.13;;
64367;SDS011;50692;53.314;-6.300;2023-01-19T17:11:32;17.97;;;13.00;;
64367;SDS011;50692;53.314;-6.300;2023-01-19T17:14:19;16.40;;;10.40;;
64367;SDS011;50692;53.314;-6.300;2023-01-19T17:17:05;12.67;;;8.50;;
64367;SDS011;50692;53.314;-6.300;2023-01-19T17:19:53;10.70;;;8.00;;
64367;SDS011;50692;53.314;-6.300;2023-01-19T17:22:39;11.57;;;8.50;;
64367;SDS011;50692;53.314;-6.300;2023-01-19T17:25:25;10.77;;;7.47;;
64367;SDS011;50692;53.314;-6.300;2023-01-19T17:28:11;15.03;;;9.10;;
64367;SDS011;50692;53.314;-6.300;2023-01-19T17:31:02;10.07;;;7.73;;
64367;SDS011;50692;53.314;-6.300;2023-01-19T17:33:50;10.57;;;6.87;;
64367;SDS011;50692;53.314;-6.300;2023-01-19T17:36:36;9.77;;;6.73;;
64367;SDS011;50692;53.314;-6.300;2023-01-19T17:39:22;9.67;;;7.13;;
64367;SDS011;50692;53.314;-6.300;2023-01-19T17:42:09;15.57;;;10.37;;
64367;SDS011;50692;53.314;-6.300;2023-01-19T17:44:55;19.60;;;15.13;;
64367;SDS011;50692;53.314;-6.300;2023-01-19T17:47:41;19.60;;;14.40;;
64367;SDS011;50692;53.314;-6.300;2023-01-19T17:50:26;17.90;;;13.03;;
64367;SDS011;50692;53.314;-6.300;2023-01-19T17:53:13;31.70;;;25.20;;
64367;SDS011;50692;53.314;-6.300;2023-01-19T17:56:10;14.60;;;10.20;;
64367;SDS011;50692;53.314;-6.300;2023-01-19T17:58:57;17.65;;;10.75;;